Pagrindinis puslapis
METAR-TAF:

METAR-TAF

Oro uostai :

Dalkahuė, Čilė

platuma: 42-20-25S, ilguma: 073-42-56W, Aukštis: 161 m

Dabartinis oras

Ataskaita buvo paskelbta 16 minutes, ne 11:00 UTC
Vėjas 7 kt iš Šiaurės, svyruoja nuo Šiaurės Vakarų ir Šiaurės/Šiaurės Rytų
Temperatūra 12°C
Drėgmė 94%
Slėgis 1004 hPa
Matomumas: 6000 m
Mažai debesys ne aukštis 400 ft
Apsiniaukę ne aukštis 2100 ft
lietus

METAR: SCPQ 071100Z AUTO 36007KT 320V020 6000 RA FEW004 OVC021 12/11 Q1004 RERA

Laikas: 08:16 (11:16 UTC)

Prognozė

Ataskaita buvo paskelbta 18 valandos ir 14 minutes, ne 17:02 UTC
Prognozė galioja nuo 06 metu 18 UTC su 07 metu 06 UTC
Vėjas 10 kt iš Šiaurės/Šiaurės Vakarų
Matomumas 10 km arba daugiau
Mažai debesys ne aukštis 3000 ft
Su prošvaistėmis ne aukštis 4000 ft
Tapsmas
nuo 07 metu 00 UTC su 07 metu 02 UTC
Apsiniaukę ne aukštis 2000 ft

TAF: SCPQ 061702Z 0618/0706 34010KT 9999 FEW030 BKN040 TX19/0619Z TN11/0706Z BECMG 0700/0702 OVC020

Orai ataskaitas ir orų prognozės (METAR, TAF).

turimą stotys yra geltonos ir raudonos taškus žemėlapyje.

Perkelti pele per norėdami pamatyti stoties vardą.

Tada spustelėkite, norėdami matyti oro stebėjimo ir prognozės.

Norėdami pakeisti žemėlapį: spustelėkite ant žalios mygtukų su juodo kryžiaus žemyn,; žalią mygtuką su brūkšneliu, jei norite nutolinti; arba žalių rodyklių gretimoms žemėlapius.


METAR-TAF: